sensor_id;sensor_type;location;lat;lon;timestamp;P1;durP1;ratioP1;P2;durP2;ratioP2
36415;SDS011;22447;44.530;18.620;2023-02-01T00:00:44;266.45;;;120.65;;
36415;SDS011;22447;44.530;18.620;2023-02-01T00:03:10;264.92;;;119.97;;
36415;SDS011;22447;44.530;18.620;2023-02-01T00:05:38;254.07;;;116.28;;
36415;SDS011;22447;44.530;18.620;2023-02-01T00:08:04;244.60;;;113.13;;
36415;SDS011;22447;44.530;18.620;2023-02-01T00:10:30;255.27;;;114.65;;
36415;SDS011;22447;44.530;18.620;2023-02-01T00:12:56;235.48;;;110.53;;
36415;SDS011;22447;44.530;18.620;2023-02-01T00:15:22;237.60;;;111.57;;
36415;SDS011;22447;44.530;18.620;2023-02-01T00:17:52;255.20;;;117.47;;
36415;SDS011;22447;44.530;18.620;2023-02-01T00:20:19;273.60;;;122.97;;
36415;SDS011;22447;44.530;18.620;2023-02-01T00:22:45;271.73;;;122.40;;
36415;SDS011;22447;44.530;18.620;2023-02-01T00:25:11;256.50;;;119.25;;
36415;SDS011;22447;44.530;18.620;2023-02-01T00:27:37;293.00;;;130.77;;
36415;SDS011;22447;44.530;18.620;2023-02-01T00:30:03;420.25;;;166.18;;
36415;SDS011;22447;44.530;18.620;2023-02-01T00:32:29;744.15;;;289.83;;
36415;SDS011;22447;44.530;18.620;2023-02-01T00:34:57;837.10;;;323.38;;
36415;SDS011;22447;44.530;18.620;2023-02-01T00:37:23;814.83;;;314.35;;
36415;SDS011;22447;44.530;18.620;2023-02-01T00:39:49;827.08;;;310.25;;
36415;SDS011;22447;44.530;18.620;2023-02-01T00:42:15;822.03;;;303.65;;
36415;SDS011;22447;44.530;18.620;2023-02-01T00:44:41;840.67;;;312.05;;
36415;SDS011;22447;44.530;18.620;2023-02-01T00:47:07;811.80;;;304.35;;
36415;SDS011;22447;44.530;18.620;2023-02-01T00:49:33;520.15;;;193.27;;
36415;SDS011;22447;44.530;18.620;2023-02-01T00:52:00;414.17;;;165.43;;
36415;SDS011;22447;44.530;18.620;2023-02-01T00:54:26;330.63;;;134.77;;
36415;SDS011;22447;44.530;18.620;2023-02-01T00:56:52;273.80;;;121.18;;
36415;SDS011;22447;44.530;18.620;2023-02-01T00:59:18;254.50;;;112.90;;
36415;SDS011;22447;44.530;18.620;2023-02-01T01:01:44;269.10;;;117.43;;
36415;SDS011;22447;44.530;18.620;2023-02-01T01:04:10;266.80;;;118.85;;
36415;SDS011;22447;44.530;18.620;2023-02-01T01:06:36;246.70;;;110.65;;
36415;SDS011;22447;44.530;18.620;2023-02-01T01:09:03;366.27;;;141.75;;
36415;SDS011;22447;44.530;18.620;2023-02-01T01:11:31;329.25;;;132.20;;
36415;SDS011;22447;44.530;18.620;2023-02-01T01:14:00;307.60;;;129.18;;
36415;SDS011;22447;44.530;18.620;2023-02-01T01:16:27;479.60;;;177.30;;
36415;SDS011;22447;44.530;18.620;2023-02-01T01:18:54;462.13;;;174.88;;
36415;SDS011;22447;44.530;18.620;2023-02-01T01:21:20;363.85;;;148.10;;
36415;SDS011;22447;44.530;18.620;2023-02-01T01:23:47;260.92;;;119.07;;
36415;SDS011;22447;44.530;18.620;2023-02-01T01:26:14;243.45;;;113.88;;
36415;SDS011;22447;44.530;18.620;2023-02-01T01:28:42;229.43;;;107.18;;
36415;SDS011;22447;44.530;18.620;2023-02-01T01:31:09;205.43;;;104.65;;
36415;SDS011;22447;44.530;18.620;2023-02-01T01:33:36;216.98;;;104.18;;
36415;SDS011;22447;44.530;18.620;2023-02-01T01:36:04;218.95;;;105.18;;
36415;SDS011;22447;44.530;18.620;2023-02-01T01:38:31;234.63;;;113.15;;
36415;SDS011;22447;44.530;18.620;2023-02-01T01:40:58;237.63;;;112.18;;
36415;SDS011;22447;44.530;18.620;2023-02-01T01:43:24;242.95;;;107.50;;
36415;SDS011;22447;44.530;18.620;2023-02-01T01:45:53;244.80;;;111.05;;
36415;SDS011;22447;44.530;18.620;2023-02-01T01:48:20;311.40;;;138.18;;
36415;SDS011;22447;44.530;18.620;2023-02-01T01:51:00;392.05;;;162.23;;
36415;SDS011;22447;44.530;18.620;2023-02-01T01:53:35;396.20;;;157.90;;
36415;SDS011;22447;44.530;18.620;2023-02-01T01:56:10;456.30;;;183.98;;
36415;SDS011;22447;44.530;18.620;2023-02-01T01:58:37;441.42;;;176.70;;
36415;SDS011;22447;44.530;18.620;2023-02-01T02:01:03;416.58;;;169.85;;
36415;SDS011;22447;44.530;18.620;2023-02-01T02:05:59;406.33;;;169.68;;
36415;SDS011;22447;44.530;18.620;2023-02-01T02:08:27;365.65;;;157.35;;
36415;SDS011;22447;44.530;18.620;2023-02-01T02:10:54;328.70;;;146.90;;
36415;SDS011;22447;44.530;18.620;2023-02-01T02:13:33;305.40;;;140.77;;
36415;SDS011;22447;44.530;18.620;2023-02-01T02:19:22;298.17;;;136.20;;
36415;SDS011;22447;44.530;18.620;2023-02-01T02:41:14;239.65;;;112.15;;
36415;SDS011;22447;44.530;18.620;2023-02-01T02:44:13;250.18;;;114.47;;
36415;SDS011;22447;44.530;18.620;2023-02-01T02:49:59;285.73;;;129.43;;
36415;SDS011;22447;44.530;18.620;2023-02-01T02:52:49;295.75;;;133.40;;
36415;SDS011;22447;44.530;18.620;2023-02-01T02:55:44;315.40;;;141.27;;
36415;SDS011;22447;44.530;18.620;2023-02-01T02:58:11;313.13;;;139.82;;
36415;SDS011;22447;44.530;18.620;2023-02-01T03:00:57;306.98;;;138.27;;
36415;SDS011;22447;44.530;18.620;2023-02-01T03:03:42;304.58;;;137.88;;
36415;SDS011;22447;44.530;18.620;2023-02-01T03:06:28;260.10;;;118.90;;
36415;SDS011;22447;44.530;18.620;2023-02-01T03:08:58;290.75;;;130.32;;
36415;SDS011;22447;44.530;18.620;2023-02-01T03:11:27;279.23;;;128.27;;
36415;SDS011;22447;44.530;18.620;2023-02-01T03:14:14;264.80;;;121.35;;
36415;SDS011;22447;44.530;18.620;2023-02-01T03:16:46;245.80;;;117.35;;
36415;SDS011;22447;44.530;18.620;2023-02-01T03:22:05;218.30;;;104.15;;
36415;SDS011;22447;44.530;18.620;2023-02-01T03:24:41;210.70;;;98.80;;
36415;SDS011;22447;44.530;18.620;2023-02-01T03:29:54;222.80;;;103.82;;
36415;SDS011;22447;44.530;18.620;2023-02-01T03:32:27;200.77;;;98.15;;
36415;SDS011;22447;44.530;18.620;2023-02-01T03:34:54;196.02;;;90.30;;
36415;SDS011;22447;44.530;18.620;2023-02-01T03:37:24;188.93;;;91.32;;
36415;SDS011;22447;44.530;18.620;2023-02-01T03:39:53;193.30;;;89.78;;
36415;SDS011;22447;44.530;18.620;2023-02-01T03:42:34;183.35;;;89.72;;
36415;SDS011;22447;44.530;18.620;2023-02-01T03:45:10;236.48;;;103.70;;
36415;SDS011;22447;44.530;18.620;2023-02-01T03:47:42;244.35;;;108.03;;
36415;SDS011;22447;44.530;18.620;2023-02-01T03:50:13;237.40;;;106.90;;
36415;SDS011;22447;44.530;18.620;2023-02-01T03:52:57;229.13;;;100.63;;
36415;SDS011;22447;44.530;18.620;2023-02-01T03:55:27;196.10;;;92.32;;
36415;SDS011;22447;44.530;18.620;2023-02-01T03:57:57;178.15;;;83.82;;
36415;SDS011;22447;44.530;18.620;2023-02-01T04:01:00;162.88;;;74.72;;
36415;SDS011;22447;44.530;18.620;2023-02-01T04:03:29;139.90;;;70.97;;
36415;SDS011;22447;44.530;18.620;2023-02-01T04:05:56;147.95;;;71.68;;
36415;SDS011;22447;44.530;18.620;2023-02-01T04:08:25;138.57;;;65.72;;
36415;SDS011;22447;44.530;18.620;2023-02-01T04:10:51;132.63;;;65.80;;
36415;SDS011;22447;44.530;18.620;2023-02-01T04:13:17;148.10;;;70.22;;
36415;SDS011;22447;44.530;18.620;2023-02-01T04:15:43;148.00;;;70.90;;
36415;SDS011;22447;44.530;18.620;2023-02-01T04:18:10;152.05;;;68.47;;
36415;SDS011;22447;44.530;18.620;2023-02-01T04:20:36;151.68;;;71.65;;
36415;SDS011;22447;44.530;18.620;2023-02-01T04:23:02;199.10;;;90.03;;
36415;SDS011;22447;44.530;18.620;2023-02-01T04:25:28;213.05;;;97.97;;
36415;SDS011;22447;44.530;18.620;2023-02-01T04:27:55;219.20;;;96.85;;
36415;SDS011;22447;44.530;18.620;2023-02-01T04:30:20;154.38;;;73.03;;
36415;SDS011;22447;44.530;18.620;2023-02-01T04:32:48;152.77;;;71.43;;
36415;SDS011;22447;44.530;18.620;2023-02-01T04:35:14;148.73;;;66.93;;
36415;SDS011;22447;44.530;18.620;2023-02-01T04:37:40;132.88;;;63.70;;
36415;SDS011;22447;44.530;18.620;2023-02-01T04:40:06;186.43;;;81.72;;
36415;SDS011;22447;44.530;18.620;2023-02-01T04:42:32;220.50;;;94.28;;
36415;SDS011;22447;44.530;18.620;2023-02-01T04:44:58;214.43;;;92.30;;
36415;SDS011;22447;44.530;18.620;2023-02-01T04:47:24;204.05;;;90.88;;
36415;SDS011;22447;44.530;18.620;2023-02-01T04:49:51;182.70;;;83.72;;
36415;SDS011;22447;44.530;18.620;2023-02-01T04:52:17;177.35;;;80.10;;
36415;SDS011;22447;44.530;18.620;2023-02-01T04:54:43;148.38;;;70.18;;
36415;SDS011;22447;44.530;18.620;2023-02-01T04:57:09;119.88;;;57.60;;
36415;SDS011;22447;44.530;18.620;2023-02-01T04:59:36;115.85;;;56.85;;
36415;SDS011;22447;44.530;18.620;2023-02-01T05:02:02;122.13;;;58.55;;
36415;SDS011;22447;44.530;18.620;2023-02-01T05:04:28;133.75;;;60.17;;
36415;SDS011;22447;44.530;18.620;2023-02-01T05:06:54;137.82;;;66.05;;
36415;SDS011;22447;44.530;18.620;2023-02-01T05:09:20;158.18;;;71.88;;
36415;SDS011;22447;44.530;18.620;2023-02-01T05:11:47;154.82;;;69.22;;
36415;SDS011;22447;44.530;18.620;2023-02-01T05:14:31;154.38;;;67.80;;
36415;SDS011;22447;44.530;18.620;2023-02-01T05:16:57;146.73;;;68.82;;
36415;SDS011;22447;44.530;18.620;2023-02-01T05:19:23;131.88;;;62.22;;
36415;SDS011;22447;44.530;18.620;2023-02-01T05:21:49;133.35;;;65.70;;
36415;SDS011;22447;44.530;18.620;2023-02-01T05:24:15;142.07;;;66.93;;
36415;SDS011;22447;44.530;18.620;2023-02-01T05:26:47;149.73;;;71.95;;
36415;SDS011;22447;44.530;18.620;2023-02-01T05:29:14;144.38;;;66.90;;
36415;SDS011;22447;44.530;18.620;2023-02-01T05:31:41;160.98;;;76.95;;
36415;SDS011;22447;44.530;18.620;2023-02-01T05:34:07;155.10;;;76.25;;
36415;SDS011;22447;44.530;18.620;2023-02-01T05:36:33;143.70;;;70.35;;
36415;SDS011;22447;44.530;18.620;2023-02-01T05:38:59;129.10;;;62.50;;
36415;SDS011;22447;44.530;18.620;2023-02-01T05:41:25;123.75;;;60.13;;
36415;SDS011;22447;44.530;18.620;2023-02-01T05:43:51;124.75;;;62.67;;
36415;SDS011;22447;44.530;18.620;2023-02-01T05:46:17;116.97;;;59.05;;
36415;SDS011;22447;44.530;18.620;2023-02-01T05:48:43;133.82;;;65.35;;
36415;SDS011;22447;44.530;18.620;2023-02-01T05:51:09;133.05;;;64.72;;
36415;SDS011;22447;44.530;18.620;2023-02-01T05:53:36;139.85;;;66.47;;
36415;SDS011;22447;44.530;18.620;2023-02-01T05:56:02;141.18;;;66.30;;
36415;SDS011;22447;44.530;18.620;2023-02-01T05:58:28;176.15;;;82.70;;
36415;SDS011;22447;44.530;18.620;2023-02-01T06:00:55;150.75;;;73.85;;
36415;SDS011;22447;44.530;18.620;2023-02-01T06:03:21;163.15;;;80.03;;
36415;SDS011;22447;44.530;18.620;2023-02-01T06:05:47;164.98;;;80.15;;
36415;SDS011;22447;44.530;18.620;2023-02-01T06:08:13;178.35;;;86.93;;
36415;SDS011;22447;44.530;18.620;2023-02-01T06:10:40;161.57;;;78.28;;
36415;SDS011;22447;44.530;18.620;2023-02-01T06:13:06;149.02;;;71.10;;
36415;SDS011;22447;44.530;18.620;2023-02-01T06:15:32;177.30;;;81.25;;
36415;SDS011;22447;44.530;18.620;2023-02-01T06:17:58;195.57;;;90.65;;
36415;SDS011;22447;44.530;18.620;2023-02-01T06:20:24;229.95;;;103.10;;
36415;SDS011;22447;44.530;18.620;2023-02-01T06:22:50;331.05;;;141.90;;
36415;SDS011;22447;44.530;18.620;2023-02-01T06:25:17;286.15;;;127.40;;
36415;SDS011;22447;44.530;18.620;2023-02-01T06:27:44;296.02;;;122.85;;
36415;SDS011;22447;44.530;18.620;2023-02-01T06:30:10;272.15;;;118.43;;
36415;SDS011;22447;44.530;18.620;2023-02-01T06:32:41;210.15;;;92.70;;
36415;SDS011;22447;44.530;18.620;2023-02-01T06:35:08;214.48;;;92.80;;
36415;SDS011;22447;44.530;18.620;2023-02-01T06:37:37;427.60;;;159.88;;
36415;SDS011;22447;44.530;18.620;2023-02-01T06:40:06;368.23;;;141.10;;
36415;SDS011;22447;44.530;18.620;2023-02-01T06:42:33;317.73;;;129.20;;
36415;SDS011;22447;44.530;18.620;2023-02-01T06:44:59;274.88;;;116.65;;
36415;SDS011;22447;44.530;18.620;2023-02-01T06:47:25;310.70;;;129.85;;
36415;SDS011;22447;44.530;18.620;2023-02-01T06:49:51;357.98;;;146.40;;
36415;SDS011;22447;44.530;18.620;2023-02-01T06:52:17;329.08;;;144.30;;
36415;SDS011;22447;44.530;18.620;2023-02-01T06:54:43;313.73;;;149.73;;
36415;SDS011;22447;44.530;18.620;2023-02-01T06:57:09;286.48;;;142.23;;
36415;SDS011;22447;44.530;18.620;2023-02-01T06:59:35;252.95;;;129.32;;
36415;SDS011;22447;44.530;18.620;2023-02-01T07:02:01;267.55;;;135.23;;
36415;SDS011;22447;44.530;18.620;2023-02-01T07:04:27;225.48;;;103.70;;
36415;SDS011;22447;44.530;18.620;2023-02-01T07:06:53;212.13;;;96.15;;
36415;SDS011;22447;44.530;18.620;2023-02-01T07:09:19;216.40;;;95.35;;
36415;SDS011;22447;44.530;18.620;2023-02-01T07:11:45;195.60;;;91.63;;
36415;SDS011;22447;44.530;18.620;2023-02-01T07:14:11;216.98;;;107.22;;
36415;SDS011;22447;44.530;18.620;2023-02-01T07:16:37;234.70;;;112.22;;
36415;SDS011;22447;44.530;18.620;2023-02-01T07:19:03;223.15;;;103.10;;
36415;SDS011;22447;44.530;18.620;2023-02-01T07:21:30;216.98;;;101.00;;
36415;SDS011;22447;44.530;18.620;2023-02-01T07:23:56;244.70;;;114.18;;
36415;SDS011;22447;44.530;18.620;2023-02-01T07:26:23;249.10;;;117.22;;
36415;SDS011;22447;44.530;18.620;2023-02-01T07:28:49;227.57;;;105.65;;
36415;SDS011;22447;44.530;18.620;2023-02-01T07:31:17;200.45;;;96.65;;
36415;SDS011;22447;44.530;18.620;2023-02-01T07:33:46;176.10;;;83.57;;
36415;SDS011;22447;44.530;18.620;2023-02-01T07:36:17;179.75;;;80.10;;
36415;SDS011;22447;44.530;18.620;2023-02-01T07:38:43;175.80;;;82.82;;
36415;SDS011;22447;44.530;18.620;2023-02-01T07:41:09;194.38;;;88.38;;
36415;SDS011;22447;44.530;18.620;2023-02-01T07:43:36;187.07;;;87.32;;
36415;SDS011;22447;44.530;18.620;2023-02-01T07:46:03;186.85;;;93.32;;
36415;SDS011;22447;44.530;18.620;2023-02-01T07:48:29;201.30;;;99.38;;
36415;SDS011;22447;44.530;18.620;2023-02-01T07:51:03;237.20;;;117.10;;
36415;SDS011;22447;44.530;18.620;2023-02-01T07:53:31;233.80;;;114.07;;
36415;SDS011;22447;44.530;18.620;2023-02-01T07:55:59;232.18;;;117.93;;
36415;SDS011;22447;44.530;18.620;2023-02-01T07:58:25;254.90;;;126.68;;
36415;SDS011;22447;44.530;18.620;2023-02-01T08:00:52;246.60;;;122.10;;
36415;SDS011;22447;44.530;18.620;2023-02-01T08:03:37;202.88;;;99.60;;
36415;SDS011;22447;44.530;18.620;2023-02-01T08:06:03;211.48;;;105.95;;
36415;SDS011;22447;44.530;18.620;2023-02-01T08:08:30;202.65;;;103.85;;
36415;SDS011;22447;44.530;18.620;2023-02-01T08:11:03;127.35;;;63.08;;
36415;SDS011;22447;44.530;18.620;2023-02-01T08:13:30;122.70;;;57.05;;
36415;SDS011;22447;44.530;18.620;2023-02-01T08:16:00;122.60;;;60.53;;
36415;SDS011;22447;44.530;18.620;2023-02-01T08:18:28;102.22;;;51.03;;
36415;SDS011;22447;44.530;18.620;2023-02-01T08:20:54;139.95;;;69.40;;
36415;SDS011;22447;44.530;18.620;2023-02-01T08:23:20;223.75;;;109.88;;
36415;SDS011;22447;44.530;18.620;2023-02-01T08:25:47;215.02;;;106.20;;
36415;SDS011;22447;44.530;18.620;2023-02-01T08:28:13;184.15;;;93.70;;
36415;SDS011;22447;44.530;18.620;2023-02-01T08:30:39;193.57;;;100.80;;
36415;SDS011;22447;44.530;18.620;2023-02-01T08:33:07;182.32;;;94.57;;
36415;SDS011;22447;44.530;18.620;2023-02-01T08:35:34;179.27;;;96.60;;
36415;SDS011;22447;44.530;18.620;2023-02-01T08:38:01;182.10;;;95.38;;
36415;SDS011;22447;44.530;18.620;2023-02-01T08:40:27;176.30;;;91.97;;
36415;SDS011;22447;44.530;18.620;2023-02-01T08:42:53;166.48;;;86.65;;
36415;SDS011;22447;44.530;18.620;2023-02-01T08:45:24;152.82;;;81.70;;
36415;SDS011;22447;44.530;18.620;2023-02-01T08:47:53;146.27;;;77.57;;
36415;SDS011;22447;44.530;18.620;2023-02-01T08:50:20;148.20;;;79.35;;
36415;SDS011;22447;44.530;18.620;2023-02-01T08:52:47;141.88;;;76.05;;
36415;SDS011;22447;44.530;18.620;2023-02-01T08:55:14;145.60;;;77.85;;
36415;SDS011;22447;44.530;18.620;2023-02-01T08:57:41;140.73;;;74.43;;
36415;SDS011;22447;44.530;18.620;2023-02-01T09:00:08;133.02;;;68.32;;
36415;SDS011;22447;44.530;18.620;2023-02-01T09:02:38;124.95;;;65.72;;
36415;SDS011;22447;44.530;18.620;2023-02-01T09:05:04;124.78;;;67.40;;
36415;SDS011;22447;44.530;18.620;2023-02-01T09:07:32;126.57;;;66.82;;
36415;SDS011;22447;44.530;18.620;2023-02-01T09:09:58;120.30;;;63.28;;
36415;SDS011;22447;44.530;18.620;2023-02-01T09:12:30;114.97;;;59.28;;
36415;SDS011;22447;44.530;18.620;2023-02-01T09:14:57;113.43;;;58.65;;
36415;SDS011;22447;44.530;18.620;2023-02-01T09:17:28;112.38;;;54.33;;
36415;SDS011;22447;44.530;18.620;2023-02-01T09:19:54;94.78;;;49.67;;
36415;SDS011;22447;44.530;18.620;2023-02-01T09:22:20;112.75;;;56.75;;
36415;SDS011;22447;44.530;18.620;2023-02-01T09:24:47;122.07;;;60.00;;
36415;SDS011;22447;44.530;18.620;2023-02-01T09:27:12;106.05;;;58.13;;
36415;SDS011;22447;44.530;18.620;2023-02-01T09:29:39;126.13;;;57.30;;
36415;SDS011;22447;44.530;18.620;2023-02-01T09:32:05;138.65;;;61.55;;
36415;SDS011;22447;44.530;18.620;2023-02-01T09:34:32;100.15;;;52.63;;
36415;SDS011;22447;44.530;18.620;2023-02-01T09:36:58;96.88;;;50.90;;
36415;SDS011;22447;44.530;18.620;2023-02-01T09:39:25;105.28;;;51.53;;
36415;SDS011;22447;44.530;18.620;2023-02-01T09:44:48;100.80;;;50.30;;
36415;SDS011;22447;44.530;18.620;2023-02-01T09:47:22;117.20;;;52.10;;
36415;SDS011;22447;44.530;18.620;2023-02-01T09:53:00;140.52;;;52.70;;
36415;SDS011;22447;44.530;18.620;2023-02-01T09:55:52;92.28;;;48.20;;
36415;SDS011;22447;44.530;18.620;2023-02-01T09:58:27;111.95;;;51.05;;
36415;SDS011;22447;44.530;18.620;2023-02-01T10:01:03;96.55;;;46.60;;
36415;SDS011;22447;44.530;18.620;2023-02-01T10:03:35;72.63;;;40.88;;
36415;SDS011;22447;44.530;18.620;2023-02-01T10:26:35;62.65;;;31.38;;
36415;SDS011;22447;44.530;18.620;2023-02-01T10:29:04;59.28;;;30.52;;
36415;SDS011;22447;44.530;18.620;2023-02-01T10:31:45;72.68;;;31.27;;
36415;SDS011;22447;44.530;18.620;2023-02-01T10:34:15;48.45;;;25.95;;
36415;SDS011;22447;44.530;18.620;2023-02-01T10:36:50;51.92;;;24.67;;
36415;SDS011;22447;44.530;18.620;2023-02-01T10:39:24;50.97;;;24.98;;
36415;SDS011;22447;44.530;18.620;2023-02-01T10:41:50;58.97;;;26.50;;
36415;SDS011;22447;44.530;18.620;2023-02-01T10:44:17;53.90;;;23.75;;
36415;SDS011;22447;44.530;18.620;2023-02-01T10:46:48;39.22;;;22.70;;
36415;SDS011;22447;44.530;18.620;2023-02-01T10:49:19;42.70;;;21.85;;
36415;SDS011;22447;44.530;18.620;2023-02-01T10:54:52;55.38;;;25.13;;
36415;SDS011;22447;44.530;18.620;2023-02-01T10:57:25;52.67;;;23.83;;
36415;SDS011;22447;44.530;18.620;2023-02-01T10:59:55;49.03;;;23.30;;
36415;SDS011;22447;44.530;18.620;2023-02-01T11:02:29;53.95;;;23.20;;
36415;SDS011;22447;44.530;18.620;2023-02-01T11:05:04;52.10;;;23.20;;
36415;SDS011;22447;44.530;18.620;2023-02-01T11:07:35;41.33;;;21.17;;
36415;SDS011;22447;44.530;18.620;2023-02-01T11:10:02;40.40;;;21.50;;
36415;SDS011;22447;44.530;18.620;2023-02-01T11:17:46;45.75;;;20.10;;
36415;SDS011;22447;44.530;18.620;2023-02-01T11:20:21;44.78;;;19.30;;
36415;SDS011;22447;44.530;18.620;2023-02-01T11:23:03;55.95;;;21.73;;
36415;SDS011;22447;44.530;18.620;2023-02-01T11:25:30;53.10;;;19.27;;
36415;SDS011;22447;44.530;18.620;2023-02-01T11:28:00;42.97;;;20.17;;
36415;SDS011;22447;44.530;18.620;2023-02-01T11:30:34;41.85;;;19.77;;
36415;SDS011;22447;44.530;18.620;2023-02-01T11:33:13;57.97;;;22.50;;
36415;SDS011;22447;44.530;18.620;2023-02-01T11:35:42;64.32;;;21.80;;
36415;SDS011;22447;44.530;18.620;2023-02-01T11:38:45;66.10;;;22.48;;
36415;SDS011;22447;44.530;18.620;2023-02-01T11:41:16;58.53;;;20.85;;
36415;SDS011;22447;44.530;18.620;2023-02-01T11:43:55;37.70;;;19.15;;
36415;SDS011;22447;44.530;18.620;2023-02-01T11:46:24;43.25;;;20.27;;
36415;SDS011;22447;44.530;18.620;2023-02-01T11:49:12;52.33;;;19.60;;
36415;SDS011;22447;44.530;18.620;2023-02-01T11:55:02;39.95;;;20.23;;
36415;SDS011;22447;44.530;18.620;2023-02-01T11:58:12;45.45;;;18.55;;
36415;SDS011;22447;44.530;18.620;2023-02-01T12:01:25;35.08;;;17.17;;
36415;SDS011;22447;44.530;18.620;2023-02-01T12:06:47;31.13;;;16.63;;
36415;SDS011;22447;44.530;18.620;2023-02-01T12:17:51;35.58;;;18.33;;
36415;SDS011;22447;44.530;18.620;2023-02-01T12:37:38;54.53;;;21.73;;
36415;SDS011;22447;44.530;18.620;2023-02-01T12:40:25;42.50;;;19.45;;
36415;SDS011;22447;44.530;18.620;2023-02-01T12:43:15;51.47;;;19.98;;
36415;SDS011;22447;44.530;18.620;2023-02-01T12:46:02;51.28;;;21.83;;
36415;SDS011;22447;44.530;18.620;2023-02-01T12:48:37;35.13;;;19.30;;
36415;SDS011;22447;44.530;18.620;2023-02-01T12:51:20;46.53;;;19.63;;
36415;SDS011;22447;44.530;18.620;2023-02-01T12:53:51;64.95;;;24.15;;
36415;SDS011;22447;44.530;18.620;2023-02-01T12:56:26;44.83;;;19.65;;
36415;SDS011;22447;44.530;18.620;2023-02-01T12:59:04;52.95;;;21.20;;
36415;SDS011;22447;44.530;18.620;2023-02-01T13:01:49;62.85;;;23.45;;
36415;SDS011;22447;44.530;18.620;2023-02-01T13:07:29;49.93;;;21.60;;
36415;SDS011;22447;44.530;18.620;2023-02-01T13:10:04;53.38;;;23.75;;
36415;SDS011;22447;44.530;18.620;2023-02-01T13:12:56;54.58;;;23.08;;
36415;SDS011;22447;44.530;18.620;2023-02-01T13:15:48;48.78;;;22.13;;
36415;SDS011;22447;44.530;18.620;2023-02-01T13:18:34;56.38;;;25.15;;
36415;SDS011;22447;44.530;18.620;2023-02-01T13:21:10;63.92;;;28.95;;
36415;SDS011;22447;44.530;18.620;2023-02-01T13:23:43;68.70;;;33.25;;
36415;SDS011;22447;44.530;18.620;2023-02-01T13:26:12;78.38;;;36.15;;
36415;SDS011;22447;44.530;18.620;2023-02-01T13:39:48;136.45;;;56.22;;
36415;SDS011;22447;44.530;18.620;2023-02-01T13:42:35;136.30;;;63.58;;
36415;SDS011;22447;44.530;18.620;2023-02-01T13:45:15;135.45;;;59.25;;
36415;SDS011;22447;44.530;18.620;2023-02-01T13:47:51;133.52;;;59.67;;
36415;SDS011;22447;44.530;18.620;2023-02-01T13:55:46;148.38;;;62.78;;
36415;SDS011;22447;44.530;18.620;2023-02-01T13:58:33;150.80;;;60.17;;
36415;SDS011;22447;44.530;18.620;2023-02-01T14:09:31;120.22;;;59.20;;
36415;SDS011;22447;44.530;18.620;2023-02-01T14:11:56;146.25;;;63.50;;
36415;SDS011;22447;44.530;18.620;2023-02-01T14:19:27;139.43;;;62.70;;
36415;SDS011;22447;44.530;18.620;2023-02-01T14:21:57;117.25;;;52.55;;
36415;SDS011;22447;44.530;18.620;2023-02-01T14:24:27;155.13;;;70.07;;
36415;SDS011;22447;44.530;18.620;2023-02-01T14:26:56;131.00;;;61.08;;
36415;SDS011;22447;44.530;18.620;2023-02-01T14:29:38;133.68;;;62.78;;
36415;SDS011;22447;44.530;18.620;2023-02-01T14:32:06;145.07;;;69.10;;
36415;SDS011;22447;44.530;18.620;2023-02-01T14:42:24;204.73;;;92.70;;
36415;SDS011;22447;44.530;18.620;2023-02-01T14:47:42;212.55;;;93.40;;
36415;SDS011;22447;44.530;18.620;2023-02-01T14:52:36;201.80;;;97.57;;
36415;SDS011;22447;44.530;18.620;2023-02-01T14:55:15;197.60;;;92.82;;
36415;SDS011;22447;44.530;18.620;2023-02-01T14:58:02;200.85;;;92.30;;
36415;SDS011;22447;44.530;18.620;2023-02-01T15:00:31;182.95;;;88.25;;
36415;SDS011;22447;44.530;18.620;2023-02-01T15:06:24;174.10;;;81.70;;
36415;SDS011;22447;44.530;18.620;2023-02-01T15:09:02;156.38;;;77.22;;
36415;SDS011;22447;44.530;18.620;2023-02-01T15:11:53;150.65;;;71.85;;
36415;SDS011;22447;44.530;18.620;2023-02-01T15:14:40;142.07;;;67.32;;
36415;SDS011;22447;44.530;18.620;2023-02-01T15:17:21;160.65;;;68.70;;
36415;SDS011;22447;44.530;18.620;2023-02-01T15:20:01;142.05;;;64.03;;
36415;SDS011;22447;44.530;18.620;2023-02-01T15:22:52;139.90;;;60.83;;
36415;SDS011;22447;44.530;18.620;2023-02-01T15:25:27;137.23;;;61.40;;
36415;SDS011;22447;44.530;18.620;2023-02-01T15:27:55;128.18;;;61.80;;
36415;SDS011;22447;44.530;18.620;2023-02-01T15:30:29;166.68;;;80.32;;
36415;SDS011;22447;44.530;18.620;2023-02-01T15:33:04;217.45;;;98.20;;
36415;SDS011;22447;44.530;18.620;2023-02-01T15:35:44;134.30;;;64.78;;
36415;SDS011;22447;44.530;18.620;2023-02-01T15:38:19;191.65;;;93.68;;
36415;SDS011;22447;44.530;18.620;2023-02-01T15:43:38;213.77;;;99.82;;
36415;SDS011;22447;44.530;18.620;2023-02-01T15:46:31;181.55;;;85.35;;
36415;SDS011;22447;44.530;18.620;2023-02-01T15:49:02;182.23;;;87.10;;
36415;SDS011;22447;44.530;18.620;2023-02-01T15:51:30;183.32;;;85.82;;
36415;SDS011;22447;44.530;18.620;2023-02-01T15:56:33;175.68;;;83.80;;
36415;SDS011;22447;44.530;18.620;2023-02-01T15:59:12;161.23;;;78.82;;
36415;SDS011;22447;44.530;18.620;2023-02-01T16:01:42;188.90;;;92.90;;
36415;SDS011;22447;44.530;18.620;2023-02-01T16:04:19;175.35;;;82.45;;
36415;SDS011;22447;44.530;18.620;2023-02-01T16:06:51;163.68;;;80.40;;
36415;SDS011;22447;44.530;18.620;2023-02-01T16:09:20;153.25;;;69.90;;
36415;SDS011;22447;44.530;18.620;2023-02-01T16:14:23;148.85;;;72.25;;
36415;SDS011;22447;44.530;18.620;2023-02-01T16:16:50;164.48;;;72.10;;
36415;SDS011;22447;44.530;18.620;2023-02-01T16:19:17;145.57;;;72.85;;
36415;SDS011;22447;44.530;18.620;2023-02-01T16:21:43;160.48;;;81.20;;
36415;SDS011;22447;44.530;18.620;2023-02-01T16:24:10;132.38;;;63.22;;
36415;SDS011;22447;44.530;18.620;2023-02-01T16:26:36;123.60;;;62.95;;
36415;SDS011;22447;44.530;18.620;2023-02-01T16:29:03;130.48;;;68.72;;
36415;SDS011;22447;44.530;18.620;2023-02-01T16:31:33;145.45;;;75.10;;
36415;SDS011;22447;44.530;18.620;2023-02-01T16:34:03;151.85;;;75.53;;
36415;SDS011;22447;44.530;18.620;2023-02-01T16:36:33;147.93;;;72.20;;
36415;SDS011;22447;44.530;18.620;2023-02-01T16:38:59;156.60;;;82.45;;
36415;SDS011;22447;44.530;18.620;2023-02-01T16:41:25;192.38;;;96.28;;
36415;SDS011;22447;44.530;18.620;2023-02-01T16:43:53;198.05;;;102.30;;
36415;SDS011;22447;44.530;18.620;2023-02-01T16:46:21;159.52;;;80.40;;
36415;SDS011;22447;44.530;18.620;2023-02-01T16:48:59;131.90;;;68.55;;
36415;SDS011;22447;44.530;18.620;2023-02-01T16:51:27;117.10;;;59.38;;